Terminal Aerodrome Forecast
Issued by NWS

Home | Current Version | Previous Version | Text Only | Print | Product List | Glossary On
Versions: 1 2 3 4 5 6 7 8 9 10 11 12 13 14
000
FTUS45 KABQ 251700
TAFFMN
TAF
KFMN 251740Z 2518/2618 23008KT P6SM VCSH SCT050 BKN080
     FM252100 23012G20KT P6SM VCSH BKN050
     FM260200 26010KT P6SM BKN050
     FM260800 21006KT P6SM OVC050
     FM261100 09005KT 5SM -RA BR OVC025=

USA.gov is the U.S. government's official web portal to all federal, state and local government web resources and services.